createdAt,value
2023-04-15T00:02:20.236Z,8.13
2023-04-15T00:04:48.365Z,9.03
2023-04-15T00:07:16.248Z,9.53
2023-04-15T00:09:44.720Z,12.03
2023-04-15T00:12:12.811Z,8.83
2023-04-15T00:14:40.084Z,8.50
2023-04-15T00:17:07.348Z,8.60
2023-04-15T00:19:34.572Z,10.43
2023-04-15T00:22:01.936Z,8.37
2023-04-15T00:24:29.400Z,9.10
2023-04-15T00:26:56.513Z,12.43
2023-04-15T00:29:23.571Z,11.07
2023-04-15T00:31:50.911Z,10.23
2023-04-15T00:34:17.972Z,8.23
2023-04-15T00:36:45.359Z,7.73
2023-04-15T00:39:12.654Z,11.77
2023-04-15T00:41:39.837Z,10.83
2023-04-15T00:44:07.489Z,8.57
2023-04-15T00:46:36.666Z,9.50
2023-04-15T00:49:04.963Z,8.80
2023-04-15T00:51:33.537Z,13.83
2023-04-15T00:54:01.541Z,8.50
2023-04-15T00:56:29.701Z,9.07
2023-04-15T00:58:57.884Z,9.80
2023-04-15T01:01:26.000Z,9.13
2023-04-15T01:03:53.912Z,10.47
2023-04-15T01:06:21.443Z,8.10
2023-04-15T01:08:48.816Z,10.47
2023-04-15T01:11:16.366Z,10.47
2023-04-15T01:13:43.684Z,9.60
2023-04-15T01:16:12.076Z,10.27
2023-04-15T01:18:39.596Z,9.90
2023-04-15T01:21:07.825Z,8.60
2023-04-15T01:23:37.593Z,8.60
2023-04-15T01:26:05.027Z,11.67
2023-04-15T01:28:32.910Z,8.83
2023-04-15T01:31:10.009Z,13.57
2023-04-15T01:33:37.471Z,9.57
2023-04-15T01:36:08.442Z,9.30
2023-04-15T01:38:35.864Z,9.83
2023-04-15T01:41:04.693Z,10.60
2023-04-15T01:43:32.332Z,10.53
2023-04-15T01:45:59.453Z,9.60
2023-04-15T01:48:27.297Z,13.03
2023-04-15T01:50:57.221Z,9.60
2023-04-15T01:53:24.647Z,10.27
2023-04-15T01:55:52.022Z,12.37
2023-04-15T01:58:19.664Z,10.13
2023-04-15T02:00:47.239Z,11.83
2023-04-15T02:03:14.406Z,9.67
2023-04-15T02:05:41.508Z,10.43
2023-04-15T02:08:08.537Z,11.17
2023-04-15T02:10:35.701Z,10.93
2023-04-15T02:13:02.765Z,12.77
2023-04-15T02:15:30.492Z,10.53
2023-04-15T02:17:59.054Z,11.43
2023-04-15T02:20:26.276Z,13.03
2023-04-15T02:22:53.439Z,12.43
2023-04-15T02:25:20.933Z,12.37
2023-04-15T02:27:47.981Z,9.93
2023-04-15T02:30:15.025Z,10.23
2023-04-15T02:32:44.870Z,10.17
2023-04-15T02:35:12.469Z,11.57
2023-04-15T02:37:45.677Z,12.30
2023-04-15T02:40:13.257Z,8.70
2023-04-15T02:42:41.023Z,10.33
2023-04-15T02:45:08.375Z,9.93
2023-04-15T02:47:36.273Z,10.43
2023-04-15T02:50:04.227Z,11.77
2023-04-15T02:52:31.293Z,11.03
2023-04-15T02:55:00.698Z,12.67
2023-04-15T02:57:31.147Z,11.90
2023-04-15T02:59:58.209Z,13.17
2023-04-15T03:02:25.598Z,10.93
2023-04-15T03:04:52.706Z,11.30
2023-04-15T03:07:19.964Z,12.40
2023-04-15T03:09:47.782Z,12.33
2023-04-15T03:12:14.878Z,12.33
2023-04-15T03:14:41.934Z,12.90
2023-04-15T03:17:09.100Z,11.23
2023-04-15T03:19:36.138Z,12.30
2023-04-15T03:22:03.237Z,10.77
2023-04-15T03:24:30.327Z,12.40
2023-04-15T03:26:57.982Z,10.70
2023-04-15T03:29:25.061Z,12.97
2023-04-15T03:31:52.779Z,13.47
2023-04-15T03:34:19.787Z,16.07
2023-04-15T03:36:47.152Z,17.00
2023-04-15T03:39:14.192Z,12.20
2023-04-15T03:41:41.254Z,16.17
2023-04-15T03:44:08.296Z,15.83
2023-04-15T03:46:35.648Z,13.20
2023-04-15T03:49:03.187Z,11.33
2023-04-15T03:51:31.313Z,12.33
2023-04-15T03:53:58.800Z,12.27
2023-04-15T03:56:25.849Z,11.77
2023-04-15T03:58:52.919Z,11.80
2023-04-15T04:01:20.170Z,15.67
2023-04-15T04:03:47.565Z,12.50
2023-04-15T04:06:16.841Z,14.67
2023-04-15T04:08:43.972Z,12.93
2023-04-15T04:11:11.012Z,11.50
2023-04-15T04:13:38.131Z,12.33
2023-04-15T04:16:05.676Z,11.17
2023-04-15T04:18:33.342Z,11.10
2023-04-15T04:21:01.055Z,10.57
2023-04-15T04:23:28.203Z,12.53
2023-04-15T04:25:55.611Z,14.03
2023-04-15T04:28:22.952Z,12.40
2023-04-15T04:30:50.119Z,11.00
2023-04-15T04:33:17.137Z,13.20
2023-04-15T04:35:44.248Z,11.47
2023-04-15T04:38:11.376Z,11.20
2023-04-15T04:40:38.593Z,13.57
2023-04-15T04:43:05.667Z,11.40
2023-04-15T04:45:32.874Z,12.10
2023-04-15T04:48:00.032Z,12.97
2023-04-15T04:50:27.118Z,12.03
2023-04-15T04:52:54.183Z,16.40
2023-04-15T04:55:21.286Z,12.47
2023-04-15T04:57:48.334Z,12.47
2023-04-15T05:00:15.418Z,14.47
2023-04-15T05:02:44.092Z,12.47
2023-04-15T05:05:11.766Z,13.97
2023-04-15T05:07:39.555Z,15.80
2023-04-15T05:10:07.014Z,14.30
2023-04-15T05:12:34.082Z,14.90
2023-04-15T05:15:01.277Z,14.83
2023-04-15T05:17:28.331Z,15.27
2023-04-15T05:19:55.778Z,16.33
2023-04-15T05:22:22.947Z,15.83
2023-04-15T05:24:50.008Z,15.47
2023-04-15T05:27:17.060Z,15.93
2023-04-15T05:29:44.096Z,15.87
2023-04-15T05:32:11.398Z,14.90
2023-04-15T05:34:38.641Z,16.87
2023-04-15T05:37:05.852Z,16.67
2023-04-15T05:39:32.949Z,16.70
2023-04-15T05:42:00.718Z,14.57
2023-04-15T05:44:27.750Z,17.90
2023-04-15T05:46:54.803Z,15.13
2023-04-15T05:49:21.821Z,15.10
2023-04-15T05:51:49.017Z,14.13
2023-04-15T05:54:17.368Z,13.60
2023-04-15T05:56:45.997Z,14.13
2023-04-15T05:59:13.109Z,15.20
2023-04-15T06:01:40.213Z,19.07
2023-04-15T06:04:07.656Z,15.20
2023-04-15T06:06:34.876Z,16.50
2023-04-15T06:09:02.116Z,14.50
2023-04-15T06:11:29.466Z,16.27
2023-04-15T06:13:56.591Z,15.33
2023-04-15T06:16:23.673Z,17.37
2023-04-15T06:18:50.706Z,17.90
2023-04-15T06:21:17.800Z,14.00
2023-04-15T06:23:44.850Z,15.33
2023-04-15T06:26:11.904Z,16.10
2023-04-15T06:28:38.944Z,14.87
2023-04-15T06:31:06.381Z,14.80
2023-04-15T06:33:33.477Z,16.17
2023-04-15T06:36:00.897Z,14.10
2023-04-15T06:38:27.930Z,18.10
2023-04-15T06:40:55.273Z,13.80
2023-04-15T06:43:22.267Z,14.33
2023-04-15T06:45:49.422Z,18.45
2023-04-15T06:48:16.615Z,18.43
2023-04-15T06:50:43.660Z,16.63
2023-04-15T06:53:10.700Z,15.10
2023-04-15T06:55:37.807Z,16.43
2023-04-15T06:58:04.851Z,14.77
2023-04-15T07:00:33.647Z,16.40
2023-04-15T07:03:03.591Z,14.20
2023-04-15T07:05:32.399Z,15.50
2023-04-15T07:08:00.058Z,13.90
2023-04-15T07:10:27.196Z,14.27
2023-04-15T07:12:54.268Z,14.77
2023-04-15T07:15:22.192Z,16.07
2023-04-15T07:17:49.256Z,13.00
2023-04-15T07:20:16.363Z,15.80
2023-04-15T07:22:43.552Z,15.47
2023-04-15T07:25:10.607Z,16.40
2023-04-15T07:27:37.677Z,13.37
2023-04-15T07:30:04.882Z,14.30
2023-04-15T07:32:31.947Z,15.40
2023-04-15T07:34:59.030Z,13.90
2023-04-15T07:37:26.320Z,13.73
2023-04-15T07:39:53.469Z,14.47
2023-04-15T07:42:20.539Z,12.67
2023-04-15T07:44:47.692Z,17.80
2023-04-15T07:47:14.741Z,14.03
2023-04-15T07:49:43.366Z,14.53
2023-04-15T07:52:10.992Z,13.40
2023-04-15T07:54:38.020Z,12.80
2023-04-15T07:57:05.033Z,12.97
2023-04-15T07:59:33.445Z,14.40
2023-04-15T08:02:00.537Z,12.80
2023-04-15T08:04:28.494Z,12.37
2023-04-15T08:06:55.662Z,12.73
2023-04-15T08:09:22.928Z,11.40
2023-04-15T08:11:51.150Z,11.90
2023-04-15T08:14:18.323Z,11.63
2023-04-15T08:16:45.398Z,12.27
2023-04-15T08:19:12.568Z,12.90
2023-04-15T08:21:40.586Z,14.07
2023-04-15T08:24:08.088Z,13.83
2023-04-15T08:26:35.511Z,14.10
2023-04-15T08:29:02.814Z,13.67
2023-04-15T08:31:30.650Z,13.43
2023-04-15T08:33:59.325Z,14.57
2023-04-15T08:36:27.060Z,14.70
2023-04-15T08:38:54.197Z,14.03
2023-04-15T08:41:27.559Z,12.50
2023-04-15T08:43:57.618Z,14.73
2023-04-15T08:46:24.787Z,12.40
2023-04-15T08:48:52.094Z,13.63
2023-04-15T08:51:19.463Z,11.83
2023-04-15T08:53:47.755Z,11.80
2023-04-15T08:56:19.248Z,11.73
2023-04-15T08:58:47.179Z,14.00
2023-04-15T09:01:14.406Z,12.00
2023-04-15T09:03:42.455Z,11.80
2023-04-15T09:06:10.065Z,12.17
2023-04-15T09:08:37.107Z,11.70
2023-04-15T09:11:04.363Z,12.03
2023-04-15T09:13:31.689Z,11.43
2023-04-15T09:15:58.813Z,14.17
2023-04-15T09:18:29.864Z,11.00
2023-04-15T09:20:57.343Z,11.53
2023-04-15T09:23:24.580Z,13.07
2023-04-15T09:25:52.039Z,10.57
2023-04-15T09:28:24.630Z,10.33
2023-04-15T09:30:52.687Z,9.70
2023-04-15T09:33:19.906Z,10.80
2023-04-15T09:35:57.523Z,9.93
2023-04-15T09:38:24.602Z,10.13
2023-04-15T09:40:51.689Z,10.57
2023-04-15T09:43:18.727Z,12.47
2023-04-15T09:45:50.589Z,12.47
2023-04-15T09:48:27.999Z,10.07
2023-04-15T09:50:58.327Z,11.20
2023-04-15T09:53:26.332Z,9.80
2023-04-15T09:55:57.262Z,10.17
2023-04-15T09:58:25.577Z,9.63
2023-04-15T10:00:53.477Z,9.90
2023-04-15T10:03:22.319Z,11.83
2023-04-15T10:05:50.489Z,10.20
2023-04-15T10:08:21.788Z,9.73
2023-04-15T10:10:49.230Z,11.77
2023-04-15T10:13:22.512Z,10.73
2023-04-15T10:15:51.693Z,12.60
2023-04-15T10:18:21.634Z,11.87
2023-04-15T10:20:49.258Z,10.43
2023-04-15T10:23:17.541Z,9.37
2023-04-15T10:25:44.889Z,14.13
2023-04-15T10:28:12.222Z,10.97
2023-04-15T10:30:39.516Z,11.50
2023-04-15T10:33:07.015Z,11.77
2023-04-15T10:35:34.553Z,9.20
2023-04-15T10:38:01.639Z,9.53
2023-04-15T10:40:28.823Z,9.40
2023-04-15T10:42:56.556Z,11.13
2023-04-15T10:45:26.952Z,8.37
2023-04-15T10:47:57.563Z,8.63
2023-04-15T10:50:29.685Z,7.73
2023-04-15T10:52:57.034Z,8.43
2023-04-15T10:55:25.198Z,8.40
2023-04-15T10:57:53.603Z,8.00
2023-04-15T11:00:21.584Z,9.00
2023-04-15T11:02:59.445Z,7.23
2023-04-15T11:05:42.026Z,7.27
2023-04-15T11:08:11.824Z,7.80
2023-04-15T11:10:38.915Z,6.93
2023-04-15T11:13:15.556Z,7.43
2023-04-15T11:15:46.520Z,7.33
2023-04-15T11:18:14.342Z,7.60
2023-04-15T11:20:42.698Z,6.57
2023-04-15T11:23:15.316Z,5.90
2023-04-15T11:25:43.505Z,6.53
2023-04-15T11:28:11.924Z,4.60
2023-04-15T11:30:39.428Z,5.20
2023-04-15T11:33:07.285Z,5.30
2023-04-15T11:35:34.858Z,5.10
2023-04-15T11:38:05.395Z,5.53
2023-04-15T11:40:35.466Z,5.10
2023-04-15T11:43:06.594Z,8.20
2023-04-15T11:45:33.846Z,5.67
2023-04-15T11:48:14.095Z,6.17
2023-04-15T11:50:41.577Z,5.33
2023-04-15T11:53:12.360Z,5.13
2023-04-15T11:55:44.770Z,4.93
2023-04-15T11:58:25.224Z,7.57
2023-04-15T12:00:55.954Z,5.17
2023-04-15T12:03:27.684Z,5.57
2023-04-15T12:06:14.060Z,6.23
2023-04-15T12:08:56.155Z,5.10
2023-04-15T12:11:35.307Z,4.63
2023-04-15T12:14:09.620Z,4.70
2023-04-15T12:16:48.617Z,4.90
2023-04-15T12:19:19.095Z,6.73
2023-04-15T12:21:47.908Z,4.37
2023-04-15T12:24:15.371Z,4.90
2023-04-15T12:26:48.233Z,5.63
2023-04-15T12:29:16.395Z,5.03
2023-04-15T12:31:53.296Z,4.83
2023-04-15T12:34:31.275Z,4.63
2023-04-15T12:36:59.256Z,4.50
2023-04-15T12:39:28.666Z,4.87
2023-04-15T12:41:57.702Z,5.33
2023-04-15T12:44:25.048Z,4.50
2023-04-15T12:46:53.545Z,4.80
2023-04-15T12:49:24.333Z,6.03
2023-04-15T12:51:52.641Z,5.00
2023-04-15T12:54:20.394Z,4.40
2023-04-15T12:56:48.202Z,4.17
2023-04-15T12:59:16.161Z,4.13
2023-04-15T13:01:43.289Z,5.60
2023-04-15T13:04:10.504Z,3.83
2023-04-15T13:06:38.452Z,5.30
2023-04-15T13:09:06.147Z,3.93
2023-04-15T13:11:33.912Z,4.33
2023-04-15T13:14:04.612Z,4.00
2023-04-15T13:16:32.130Z,4.47
2023-04-15T13:19:02.581Z,5.93
2023-04-15T13:21:29.685Z,4.63
2023-04-15T13:23:56.713Z,3.80
2023-04-15T13:26:23.737Z,3.87
2023-04-15T13:28:51.134Z,6.00
2023-04-15T13:31:18.237Z,4.93
2023-04-15T13:33:45.382Z,4.23
2023-04-15T13:36:12.425Z,4.23
2023-04-15T13:38:39.749Z,5.13
2023-04-15T13:41:06.816Z,3.87
2023-04-15T13:43:34.248Z,5.17
2023-04-15T13:46:01.837Z,3.80
2023-04-15T13:48:29.200Z,5.03
2023-04-15T13:50:56.230Z,4.30
2023-04-15T13:53:33.930Z,5.40
2023-04-15T13:56:06.138Z,4.03
2023-04-15T13:58:33.233Z,3.47
2023-04-15T14:01:00.884Z,3.90
2023-04-15T14:03:29.237Z,3.70
2023-04-15T14:05:57.833Z,4.33
2023-04-15T14:08:25.828Z,3.60
2023-04-15T14:10:52.944Z,5.90
2023-04-15T14:13:20.017Z,5.70
2023-04-15T14:15:47.506Z,4.20
2023-04-15T14:18:14.711Z,4.00
2023-04-15T14:20:41.763Z,4.50
2023-04-15T14:23:08.767Z,4.30
2023-04-15T14:25:35.805Z,4.27
2023-04-15T14:28:03.447Z,5.67
2023-04-15T14:30:30.775Z,4.67
2023-04-15T14:32:57.976Z,5.03
2023-04-15T14:35:26.642Z,5.40
2023-04-15T14:37:54.289Z,4.73
2023-04-15T14:40:21.413Z,4.97
2023-04-15T14:42:48.589Z,5.07
2023-04-15T14:45:16.025Z,7.00
2023-04-15T14:47:43.139Z,5.33
2023-04-15T14:50:10.640Z,4.60
2023-04-15T14:52:40.596Z,4.93
2023-04-15T14:55:08.429Z,6.37
2023-04-15T14:57:35.975Z,5.03
2023-04-15T15:00:03.947Z,9.23
2023-04-15T15:02:39.187Z,5.30
2023-04-15T15:05:07.437Z,6.23
2023-04-15T15:07:36.008Z,7.50
2023-04-15T15:10:03.264Z,5.27
2023-04-15T15:12:30.331Z,6.17
2023-04-15T15:14:57.389Z,4.90
2023-04-15T15:17:24.461Z,4.87
2023-04-15T15:19:51.547Z,5.10
2023-04-15T15:22:20.869Z,5.73
2023-04-15T15:24:48.493Z,4.37
2023-04-15T15:27:15.686Z,4.93
2023-04-15T15:29:42.753Z,4.97
2023-04-15T15:32:09.798Z,5.53
2023-04-15T15:34:36.835Z,5.47
2023-04-15T15:37:03.921Z,6.37
2023-04-15T15:39:31.274Z,5.07
2023-04-15T15:41:58.341Z,5.17
2023-04-15T15:44:25.481Z,7.47
2023-04-15T15:46:52.576Z,6.20
2023-04-15T15:49:20.130Z,5.43
2023-04-15T15:51:47.205Z,6.23
2023-04-15T15:54:14.205Z,5.37
2023-04-15T15:56:42.119Z,8.10
2023-04-15T15:59:09.185Z,6.03
2023-04-15T16:01:36.271Z,5.67
2023-04-15T16:04:03.588Z,11.20
2023-04-15T16:06:33.302Z,6.20
2023-04-15T16:09:02.280Z,11.00
2023-04-15T16:11:29.616Z,11.60
2023-04-15T16:13:56.719Z,7.93
2023-04-15T16:16:24.266Z,9.90
2023-04-15T16:18:51.704Z,7.53
2023-04-15T16:21:20.180Z,10.97
2023-04-15T16:23:47.328Z,7.93
2023-04-15T16:26:14.754Z,11.03
2023-04-15T16:28:41.860Z,10.43
2023-04-15T16:31:09.156Z,9.13
2023-04-15T16:33:36.516Z,11.40
2023-04-15T16:36:04.552Z,9.60
2023-04-15T16:38:31.764Z,10.80
2023-04-15T16:40:59.865Z,8.33
2023-04-15T16:43:26.993Z,8.90
2023-04-15T16:45:54.048Z,10.93
2023-04-15T16:48:21.313Z,9.50
2023-04-15T16:50:49.233Z,8.87
2023-04-15T16:53:16.792Z,8.30
2023-04-15T16:55:43.813Z,8.77
2023-04-15T16:58:11.056Z,8.83
2023-04-15T17:00:38.290Z,9.27
2023-04-15T17:03:06.046Z,9.40
2023-04-15T17:05:33.442Z,14.07
2023-04-15T17:08:00.571Z,11.53
2023-04-15T17:10:27.860Z,11.73
2023-04-15T17:12:56.531Z,11.07
2023-04-15T17:15:23.804Z,11.40
2023-04-15T17:17:50.971Z,13.80
2023-04-15T17:20:18.372Z,9.60
2023-04-15T17:22:46.067Z,13.60
2023-04-15T17:25:14.150Z,10.70
2023-04-15T17:27:41.640Z,11.93
2023-04-15T17:30:08.950Z,14.97
2023-04-15T17:32:36.629Z,11.63
2023-04-15T17:35:06.877Z,13.23
2023-04-15T17:37:34.381Z,13.50
2023-04-15T17:40:01.586Z,15.23
2023-04-15T17:42:28.676Z,12.23
2023-04-15T17:44:55.758Z,11.23
2023-04-15T17:47:22.902Z,12.97
2023-04-15T17:49:49.957Z,21.33
2023-04-15T17:52:17.042Z,12.87
2023-04-15T17:54:44.083Z,10.03
2023-04-15T17:57:11.207Z,10.67
2023-04-15T17:59:38.330Z,16.27
2023-04-15T18:02:05.901Z,15.73
2023-04-15T18:04:33.385Z,15.37
2023-04-15T18:07:00.503Z,12.90
2023-04-15T18:09:27.822Z,13.73
2023-04-15T18:11:54.823Z,14.50
2023-04-15T18:14:33.588Z,17.07
2023-04-15T18:17:01.653Z,16.53
2023-04-15T18:19:28.692Z,19.07
2023-04-15T18:21:55.714Z,16.60
2023-04-15T18:24:23.117Z,15.13
2023-04-15T18:26:50.359Z,19.37
2023-04-15T18:29:18.470Z,22.63
2023-04-15T18:31:45.590Z,21.30
2023-04-15T18:34:12.660Z,24.67
2023-04-15T18:36:39.806Z,23.80
2023-04-15T18:39:06.990Z,20.13
2023-04-15T18:41:34.123Z,21.83
2023-04-15T18:44:01.178Z,24.03
2023-04-15T18:46:28.850Z,22.40
2023-04-15T18:48:55.899Z,25.53
2023-04-15T18:51:22.959Z,32.90
2023-04-15T18:53:50.361Z,52.37
2023-04-15T18:56:17.610Z,34.90
2023-04-15T18:59:23.010Z,39.37
2023-04-15T19:01:32.076Z,59.13
2023-04-15T19:03:59.744Z,24.27
2023-04-15T19:06:27.166Z,24.17
2023-04-15T19:08:54.492Z,24.20
2023-04-15T19:11:21.743Z,21.47
2023-04-15T19:13:49.013Z,22.67
2023-04-15T19:16:16.074Z,24.00
2023-04-15T19:18:43.833Z,25.17
2023-04-15T19:21:12.084Z,24.43
2023-04-15T19:23:39.485Z,24.33
2023-04-15T19:26:08.233Z,26.10
2023-04-15T19:28:35.451Z,29.67
2023-04-15T19:31:02.582Z,27.17
2023-04-15T19:33:31.437Z,27.60
2023-04-15T19:36:02.399Z,32.87
2023-04-15T19:38:30.520Z,31.83
2023-04-15T19:40:58.016Z,27.47
2023-04-15T19:43:25.109Z,25.77
2023-04-15T19:46:00.756Z,35.57
2023-04-15T19:48:27.907Z,29.23
2023-04-15T19:50:55.029Z,25.70
2023-04-15T19:53:22.051Z,39.97
2023-04-15T19:55:49.128Z,28.73
2023-04-15T19:58:16.504Z,31.13
2023-04-15T20:00:43.563Z,36.20
2023-04-15T20:03:11.277Z,32.20
2023-04-15T20:05:38.418Z,31.80
2023-04-15T20:08:05.551Z,38.03
2023-04-15T20:10:32.681Z,31.40
2023-04-15T20:12:59.775Z,32.93
2023-04-15T20:15:27.170Z,29.43
2023-04-15T20:17:54.385Z,30.83
2023-04-15T20:20:21.620Z,30.00
2023-04-15T20:22:48.970Z,24.87
2023-04-15T20:25:16.215Z,33.20
2023-04-15T20:27:43.270Z,27.10
2023-04-15T20:30:10.879Z,34.93
2023-04-15T20:32:38.622Z,30.20
2023-04-15T20:35:06.791Z,36.47
2023-04-15T20:37:34.241Z,29.47
2023-04-15T20:40:01.739Z,30.93
2023-04-15T20:42:32.632Z,31.20
2023-04-15T20:44:59.686Z,33.43
2023-04-15T20:47:26.851Z,30.40
2023-04-15T20:49:54.399Z,34.33
2023-04-15T20:52:21.813Z,37.57
2023-04-15T20:54:48.870Z,27.83
2023-04-15T20:57:16.704Z,35.53
2023-04-15T20:59:43.797Z,36.53
2023-04-15T21:02:11.038Z,31.43
2023-04-15T21:04:38.737Z,36.67
2023-04-15T21:07:05.944Z,32.87
2023-04-15T21:09:33.116Z,32.57
2023-04-15T21:12:02.124Z,35.30
2023-04-15T21:14:29.655Z,33.70
2023-04-15T21:17:03.203Z,31.90
2023-04-15T21:19:30.358Z,34.50
2023-04-15T21:21:57.373Z,33.50
2023-04-15T21:24:24.445Z,38.53
2023-04-15T21:26:51.522Z,31.10
2023-04-15T21:29:18.606Z,35.43
2023-04-15T21:31:50.844Z,43.50
2023-04-15T21:34:19.696Z,45.47
2023-04-15T21:36:46.890Z,36.83
2023-04-15T21:39:17.226Z,38.30
2023-04-15T21:41:44.386Z,41.80
2023-04-15T21:44:17.043Z,36.60
2023-04-15T21:46:45.999Z,37.97
2023-04-15T21:49:13.314Z,41.60
2023-04-15T21:51:40.585Z,40.83
2023-04-15T21:54:07.724Z,41.53
2023-04-15T21:56:34.890Z,39.73
2023-04-15T21:59:01.971Z,46.23
2023-04-15T22:01:29.232Z,43.87
2023-04-15T22:03:59.439Z,36.97
2023-04-15T22:06:49.478Z,53.50
2023-04-15T22:09:17.111Z,43.80
2023-04-15T22:11:44.437Z,45.07
2023-04-15T22:14:11.745Z,53.10
2023-04-15T22:16:38.918Z,48.93
2023-04-15T22:19:06.303Z,48.43
2023-04-15T22:21:34.004Z,48.80
2023-04-15T22:24:33.361Z,44.93
2023-04-15T22:26:48.141Z,51.90
2023-04-15T22:29:15.192Z,50.30
2023-04-15T22:31:42.330Z,53.53
2023-04-15T22:34:09.524Z,54.80
2023-04-15T22:36:36.604Z,51.77
2023-04-15T22:39:03.949Z,54.63
2023-04-15T22:41:31.489Z,49.93
2023-04-15T22:43:58.535Z,52.87
2023-04-15T22:46:25.674Z,52.93
2023-04-15T22:48:54.082Z,52.80
2023-04-15T22:51:26.841Z,54.77
2023-04-15T22:53:54.074Z,61.83
2023-04-15T22:56:21.604Z,55.77
2023-04-15T22:58:48.923Z,64.00
2023-04-15T23:01:17.599Z,53.77
2023-04-15T23:03:56.475Z,53.07
2023-04-15T23:06:30.177Z,59.20
2023-04-15T23:08:57.347Z,59.07
2023-04-15T23:11:24.445Z,55.57
2023-04-15T23:14:02.136Z,53.83
2023-04-15T23:16:29.392Z,56.80
2023-04-15T23:18:56.747Z,50.97
2023-04-15T23:21:25.956Z,58.20
2023-04-15T23:23:53.230Z,63.83
2023-04-15T23:26:20.349Z,63.60
2023-04-15T23:28:47.480Z,52.33
2023-04-15T23:31:14.515Z,56.50
2023-04-15T23:33:41.544Z,47.93
2023-04-15T23:36:08.639Z,55.40
2023-04-15T23:38:36.038Z,64.23
2023-04-15T23:41:03.389Z,58.50
2023-04-15T23:43:30.702Z,58.93
2023-04-15T23:45:57.744Z,61.17
2023-04-15T23:48:24.858Z,55.47
2023-04-15T23:50:51.879Z,63.43
2023-04-15T23:53:18.989Z,58.10
2023-04-15T23:55:46.049Z,62.67
2023-04-15T23:58:13.095Z,61.53
